createdAt,value
2022-10-22T00:01:14.197Z,98056.88
2022-10-22T00:03:19.066Z,98060.44
2022-10-22T00:05:23.807Z,98060.56
2022-10-22T00:07:31.200Z,98060.44
2022-10-22T00:09:35.944Z,98060.44
2022-10-22T00:11:40.860Z,98057.81
2022-10-22T00:15:52.316Z,98052.47
2022-10-22T00:17:57.082Z,98055.94
2022-10-22T00:20:01.784Z,98054.16
2022-10-22T00:22:07.081Z,98060.22
2022-10-22T00:24:14.413Z,98059.41
2022-10-22T00:26:19.146Z,98064.66
2022-10-22T00:28:23.887Z,98071.56
2022-10-22T00:30:32.468Z,98074.09
2022-10-22T00:32:37.417Z,98077.56
2022-10-22T00:34:42.449Z,98080.13
2022-10-22T00:36:47.282Z,98078.34
2022-10-22T00:38:52.036Z,98076.63
2022-10-22T00:40:59.495Z,98069.69
2022-10-22T00:43:04.395Z,98084.69
2022-10-22T00:45:24.919Z,98084.59
2022-10-22T00:47:35.926Z,98079.63
2022-10-22T00:49:40.718Z,98076.19
2022-10-22T00:51:45.525Z,98078.16
2022-10-22T00:53:53.609Z,98080.78
2022-10-22T00:56:01.718Z,98085.09
2022-10-22T00:58:06.937Z,98092.97
2022-10-22T01:00:13.833Z,98094.66
2022-10-22T01:02:19.126Z,98087.00
2022-10-22T01:04:23.953Z,98082.47
2022-10-22T01:06:34.264Z,98078.91
2022-10-22T01:08:47.486Z,98069.25
2022-10-22T01:11:06.572Z,98076.28
2022-10-22T01:13:20.285Z,98080.69
2022-10-22T01:15:31.128Z,98083.41
2022-10-22T01:17:42.987Z,98076.50
2022-10-22T01:20:00.740Z,98073.88
2022-10-22T01:22:11.848Z,98068.91
2022-10-22T01:24:38.519Z,98078.97
2022-10-22T01:27:02.552Z,98072.88
2022-10-22T01:29:14.418Z,98077.19
2022-10-22T01:31:20.974Z,98067.88
2022-10-22T01:33:30.746Z,98069.84
2022-10-22T01:35:40.197Z,98063.00
2022-10-22T01:37:52.281Z,98060.69
2022-10-22T01:39:58.731Z,98053.94
2022-10-22T01:42:03.483Z,98055.22
2022-10-22T01:44:28.211Z,98042.94
2022-10-22T01:46:33.367Z,98044.41
2022-10-22T01:48:51.636Z,98046.19
2022-10-22T01:51:09.989Z,98039.91
2022-10-22T01:53:26.184Z,98035.22
2022-10-22T01:55:39.167Z,98031.03
2022-10-22T01:57:51.602Z,98022.31
2022-10-22T02:00:05.365Z,98012.28
2022-10-22T02:02:26.538Z,98008.81
2022-10-22T02:04:36.592Z,98009.84
2022-10-22T02:06:45.341Z,98007.09
2022-10-22T02:08:52.236Z,98005.44
2022-10-22T02:10:58.073Z,98005.22
2022-10-22T02:13:04.375Z,97990.25
2022-10-22T02:15:14.913Z,97988.13
2022-10-22T02:17:25.507Z,97992.72
2022-10-22T02:19:38.394Z,97984.47
2022-10-22T02:21:43.179Z,97997.78
2022-10-22T02:23:48.309Z,98002.19
2022-10-22T02:25:58.540Z,98013.31
2022-10-22T02:28:15.691Z,98023.00
2022-10-22T02:30:25.467Z,98036.19
2022-10-22T02:32:35.582Z,98036.00
2022-10-22T02:34:40.662Z,98039.28
2022-10-22T02:36:48.240Z,98030.66
2022-10-22T02:38:56.336Z,98027.00
2022-10-22T02:41:01.888Z,98033.72
2022-10-22T02:43:07.656Z,98037.00
2022-10-22T02:45:13.411Z,98039.41
2022-10-22T02:47:20.892Z,98035.75
2022-10-22T02:49:25.702Z,98033.69
2022-10-22T02:51:30.463Z,98033.47
2022-10-22T02:53:35.411Z,98034.44
2022-10-22T02:55:40.116Z,98033.41
2022-10-22T02:57:45.268Z,98028.44
2022-10-22T02:59:49.708Z,98033.88
2022-10-22T03:01:54.506Z,98027.16
2022-10-22T03:04:01.945Z,98027.88
2022-10-22T03:06:06.895Z,98033.25
2022-10-22T03:08:11.614Z,98024.44
2022-10-22T03:10:16.343Z,98024.34
2022-10-22T03:12:21.090Z,98021.81
2022-10-22T03:14:25.839Z,98032.22
2022-10-22T03:16:30.639Z,98041.88
2022-10-22T03:18:35.468Z,98042.59
2022-10-22T03:20:42.799Z,98024.16
2022-10-22T03:22:48.012Z,98013.84
2022-10-22T03:24:55.540Z,98019.38
2022-10-22T03:27:01.168Z,98018.63
2022-10-22T03:29:06.078Z,98025.47
2022-10-22T03:31:11.217Z,98036.78
2022-10-22T03:33:15.907Z,98043.94
2022-10-22T03:35:20.729Z,98045.59
2022-10-22T03:37:30.305Z,98051.59
2022-10-22T03:39:37.803Z,98055.06
2022-10-22T03:41:43.034Z,98070.78
2022-10-22T03:43:51.606Z,98069.13
2022-10-22T03:45:56.325Z,98083.16
2022-10-22T03:48:01.068Z,98089.22
2022-10-22T03:50:06.302Z,98095.22
2022-10-22T03:52:11.276Z,98094.66
2022-10-22T03:54:19.633Z,98102.47
2022-10-22T03:56:24.719Z,98102.47
2022-10-22T03:58:31.275Z,98099.00
2022-10-22T04:00:38.433Z,98090.19
2022-10-22T04:02:43.192Z,98100.66
2022-10-22T04:04:47.916Z,98100.78
2022-10-22T04:06:52.686Z,98111.09
2022-10-22T04:08:57.511Z,98124.78
2022-10-22T04:11:04.855Z,98139.94
2022-10-22T04:13:09.635Z,98144.25
2022-10-22T04:15:14.361Z,98143.22
2022-10-22T04:17:19.366Z,98139.47
2022-10-22T04:19:24.227Z,98135.81
2022-10-22T04:21:30.785Z,98133.00
2022-10-22T04:23:35.592Z,98148.00
2022-10-22T04:25:40.438Z,98148.19
2022-10-22T04:27:47.722Z,98138.44
2022-10-22T04:29:52.484Z,98135.72
2022-10-22T04:31:57.277Z,98139.94
2022-10-22T04:34:03.458Z,98133.84
2022-10-22T04:36:12.612Z,98139.09
2022-10-22T04:38:17.513Z,98135.53
2022-10-22T04:40:22.189Z,98135.41
2022-10-22T04:42:29.937Z,98138.72
2022-10-22T04:44:37.721Z,98139.56
2022-10-22T04:46:42.449Z,98133.56
2022-10-22T04:48:48.694Z,98138.81
2022-10-22T04:50:53.504Z,98144.69
2022-10-22T04:52:58.490Z,98142.81
2022-10-22T04:55:03.263Z,98144.69
2022-10-22T04:57:08.025Z,98145.63
2022-10-22T04:59:15.406Z,98154.44
2022-10-22T05:01:28.087Z,98147.41
2022-10-22T05:03:32.864Z,98142.25
2022-10-22T05:05:37.554Z,98140.47
2022-10-22T05:07:42.597Z,98147.63
2022-10-22T05:09:47.731Z,98140.59
2022-10-22T05:11:54.266Z,98142.44
2022-10-22T05:13:59.768Z,98147.81
2022-10-22T05:16:04.956Z,98146.28
2022-10-22T05:18:12.269Z,98149.88
2022-10-22T05:20:16.980Z,98159.69
2022-10-22T05:22:21.742Z,98159.78
2022-10-22T05:24:26.978Z,98157.34
2022-10-22T05:26:31.806Z,98163.06
2022-10-22T05:28:37.642Z,98160.81
2022-10-22T05:30:42.370Z,98165.69
2022-10-22T05:32:47.215Z,98177.56
2022-10-22T05:34:54.591Z,98182.88
2022-10-22T05:36:59.801Z,98177.75
2022-10-22T05:39:04.297Z,98178.97
2022-10-22T05:41:11.162Z,98183.34
2022-10-22T05:43:16.536Z,98185.94
2022-10-22T05:45:21.258Z,98194.88
2022-10-22T05:47:27.318Z,98191.44
2022-10-22T05:49:32.288Z,98195.94
2022-10-22T05:51:40.054Z,98200.31
2022-10-22T05:53:45.685Z,98207.41
2022-10-22T05:55:50.410Z,98200.50
2022-10-22T05:57:55.163Z,98187.50
2022-10-22T05:59:59.921Z,98190.47
2022-10-22T06:02:04.774Z,98196.41
2022-10-22T06:04:16.215Z,98201.44
2022-10-22T06:06:27.395Z,98216.97
2022-10-22T06:08:34.860Z,98218.56
2022-10-22T06:10:40.174Z,98222.63
2022-10-22T06:12:44.915Z,98232.00
2022-10-22T06:14:49.710Z,98253.81
2022-10-22T06:16:54.863Z,98263.53
2022-10-22T06:19:01.973Z,98262.97
2022-10-22T06:21:08.703Z,98268.44
2022-10-22T06:23:13.551Z,98266.81
2022-10-22T06:25:20.991Z,98273.84
2022-10-22T06:27:25.745Z,98278.91
2022-10-22T06:29:30.539Z,98277.97
2022-10-22T06:31:37.018Z,98280.34
2022-10-22T06:33:43.672Z,98286.25
2022-10-22T06:35:48.679Z,98284.59
2022-10-22T06:37:53.423Z,98283.81
2022-10-22T06:39:58.212Z,98296.06
2022-10-22T06:42:05.516Z,98293.59
2022-10-22T06:44:16.746Z,98288.88
2022-10-22T06:46:23.534Z,98296.31
2022-10-22T06:48:28.414Z,98294.16
2022-10-22T06:50:33.435Z,98298.13
2022-10-22T06:52:38.217Z,98298.69
2022-10-22T06:54:42.997Z,98294.97
2022-10-22T06:56:47.825Z,98300.75
2022-10-22T06:58:57.282Z,98290.97
2022-10-22T07:01:06.450Z,98296.94
2022-10-22T07:03:13.863Z,98294.41
2022-10-22T07:05:18.728Z,98300.75
2022-10-22T07:07:23.434Z,98302.81
2022-10-22T07:09:29.967Z,98310.09
2022-10-22T07:11:41.992Z,98313.94
2022-10-22T07:13:47.213Z,98313.34
2022-10-22T07:15:57.523Z,98319.13
2022-10-22T07:18:04.801Z,98328.28
2022-10-22T07:20:10.708Z,98340.66
2022-10-22T07:22:15.462Z,98345.00
2022-10-22T07:24:20.186Z,98344.22
2022-10-22T07:26:25.557Z,98345.00
2022-10-22T07:28:30.762Z,98344.06
2022-10-22T07:30:35.566Z,98350.97
2022-10-22T07:32:42.941Z,98353.59
2022-10-22T07:34:47.762Z,98356.22
2022-10-22T07:36:52.499Z,98354.38
2022-10-22T07:38:59.945Z,98352.50
2022-10-22T07:41:05.053Z,98355.91
2022-10-22T07:43:09.550Z,98354.19
2022-10-22T07:45:14.351Z,98355.91
2022-10-22T07:47:19.186Z,98360.09
2022-10-22T07:49:26.758Z,98352.81
2022-10-22T07:51:31.505Z,98354.06
2022-10-22T07:53:37.312Z,98347.47
2022-10-22T07:55:42.125Z,98353.09
2022-10-22T07:57:46.852Z,98357.97
2022-10-22T07:59:51.651Z,98358.66
2022-10-22T08:01:56.358Z,98363.72
2022-10-22T08:04:01.114Z,98364.41
2022-10-22T08:06:09.198Z,98365.06
2022-10-22T08:08:15.081Z,98364.94
2022-10-22T08:10:19.932Z,98367.50
2022-10-22T08:12:24.798Z,98377.78
2022-10-22T08:14:32.549Z,98374.03
2022-10-22T08:16:37.320Z,98374.22
2022-10-22T08:18:42.162Z,98380.31
2022-10-22T08:20:47.037Z,98384.53
2022-10-22T08:22:54.389Z,98385.13
2022-10-22T08:25:00.492Z,98375.78
2022-10-22T08:27:05.267Z,98367.03
2022-10-22T08:29:10.200Z,98364.22
2022-10-22T08:31:15.439Z,98368.25
2022-10-22T08:33:19.979Z,98367.63
2022-10-22T08:35:28.190Z,98377.56
2022-10-22T08:37:32.937Z,98374.09
2022-10-22T08:39:40.366Z,98373.06
2022-10-22T08:41:57.242Z,98381.41
2022-10-22T08:44:31.794Z,98373.25
2022-10-22T08:46:55.741Z,98376.72
2022-10-22T08:49:03.046Z,98378.44
2022-10-22T08:51:08.614Z,98378.28
2022-10-22T08:53:18.790Z,98388.28
2022-10-22T08:55:28.395Z,98391.47
2022-10-22T08:57:52.134Z,98378.06
2022-10-22T09:00:04.772Z,98376.75
2022-10-22T09:02:23.779Z,98383.28
2022-10-22T09:04:33.938Z,98384.31
2022-10-22T09:06:40.747Z,98377.19
2022-10-22T09:08:48.151Z,98380.19
2022-10-22T09:11:01.461Z,98370.94
2022-10-22T09:13:06.213Z,98374.97
2022-10-22T09:15:15.984Z,98368.59
2022-10-22T09:17:29.121Z,98364.56
2022-10-22T09:19:42.835Z,98366.72
2022-10-22T09:22:00.265Z,98364.91
2022-10-22T09:24:14.101Z,98364.97
2022-10-22T09:26:21.446Z,98345.50
2022-10-22T09:28:26.396Z,98350.31
2022-10-22T09:30:31.771Z,98348.00
2022-10-22T09:32:36.494Z,98340.81
2022-10-22T09:34:41.977Z,98345.34
2022-10-22T09:36:46.709Z,98357.97
2022-10-22T09:38:53.703Z,98360.06
2022-10-22T09:41:00.680Z,98361.84
2022-10-22T09:43:08.111Z,98375.69
2022-10-22T09:45:20.923Z,98363.97
2022-10-22T09:47:43.588Z,98368.88
2022-10-22T09:50:15.262Z,98371.19
2022-10-22T09:52:33.627Z,98382.69
2022-10-22T09:54:44.306Z,98376.13
2022-10-22T09:56:58.632Z,98373.97
2022-10-22T09:59:06.643Z,98374.06
2022-10-22T10:01:11.406Z,98371.41
2022-10-22T10:03:20.361Z,98368.19
2022-10-22T10:05:31.342Z,98365.84
2022-10-22T10:07:38.289Z,98365.50
2022-10-22T10:09:43.183Z,98358.88
2022-10-22T10:11:54.744Z,98371.53
2022-10-22T10:14:14.058Z,98371.47
2022-10-22T10:16:33.816Z,98366.28
2022-10-22T10:18:55.804Z,98367.78
2022-10-22T10:21:09.517Z,98363.78
2022-10-22T10:23:24.547Z,98363.16
2022-10-22T10:25:48.668Z,98363.28
2022-10-22T10:28:02.549Z,98362.88
2022-10-22T10:30:17.834Z,98361.50
2022-10-22T10:32:37.838Z,98362.34
2022-10-22T10:34:49.105Z,98359.59
2022-10-22T10:37:04.024Z,98352.97
2022-10-22T10:39:14.158Z,98362.88
2022-10-22T10:41:35.261Z,98355.09
2022-10-22T10:43:52.208Z,98360.56
2022-10-22T10:46:10.587Z,98354.56
2022-10-22T10:48:35.979Z,98353.38
2022-10-22T10:50:51.146Z,98356.78
2022-10-22T10:53:06.256Z,98348.75
2022-10-22T10:55:19.459Z,98353.50
2022-10-22T10:57:37.163Z,98357.47
2022-10-22T10:59:52.948Z,98353.00
2022-10-22T11:02:16.769Z,98352.03
2022-10-22T11:04:46.671Z,98359.63
2022-10-22T11:07:05.876Z,98356.94
2022-10-22T11:09:27.396Z,98356.66
2022-10-22T11:11:38.549Z,98346.75
2022-10-22T11:13:50.373Z,98350.56
2022-10-22T11:16:00.698Z,98346.25
2022-10-22T11:18:17.133Z,98356.59
2022-10-22T11:20:26.877Z,98353.53
2022-10-22T11:22:36.510Z,98361.41
2022-10-22T11:24:50.784Z,98360.16
2022-10-22T11:27:00.762Z,98365.78
2022-10-22T11:29:07.821Z,98350.50
2022-10-22T11:31:17.610Z,98351.34
2022-10-22T11:33:31.028Z,98348.69
2022-10-22T11:35:38.471Z,98349.53
2022-10-22T11:37:46.149Z,98354.44
2022-10-22T11:39:54.028Z,98347.03
2022-10-22T11:42:01.255Z,98351.03
2022-10-22T11:44:14.617Z,98342.66
2022-10-22T11:46:31.707Z,98351.41
2022-10-22T11:48:41.241Z,98346.81
2022-10-22T11:50:53.097Z,98340.41
2022-10-22T11:53:05.507Z,98346.66
2022-10-22T11:55:35.381Z,98342.47
2022-10-22T11:57:41.741Z,98352.09
2022-10-22T11:59:53.221Z,98358.09
2022-10-22T12:01:58.853Z,98353.13
2022-10-22T12:04:24.970Z,98355.56
2022-10-22T12:06:31.793Z,98363.19
2022-10-22T12:08:37.161Z,98350.63
2022-10-22T12:10:58.305Z,98355.78
2022-10-22T12:13:08.297Z,98344.97
2022-10-22T12:15:27.577Z,98353.78
2022-10-22T12:17:33.888Z,98352.50
2022-10-22T12:19:44.083Z,98341.53
2022-10-22T12:21:52.639Z,98339.81
2022-10-22T12:23:57.573Z,98344.69
2022-10-22T12:26:02.535Z,98344.47
2022-10-22T12:28:09.905Z,98337.09
2022-10-22T12:30:22.434Z,98331.91
2022-10-22T12:32:36.626Z,98328.13
2022-10-22T12:36:57.300Z,98330.56
2022-10-22T12:39:03.213Z,98329.56
2022-10-22T12:41:08.288Z,98326.56
2022-10-22T12:43:14.809Z,98328.28
2022-10-22T12:45:19.672Z,98329.19
2022-10-22T12:47:24.496Z,98319.25
2022-10-22T12:49:37.301Z,98323.53
2022-10-22T12:51:45.117Z,98317.78
2022-10-22T12:53:52.009Z,98321.16
2022-10-22T12:55:58.623Z,98317.41
2022-10-22T12:58:08.580Z,98313.59
2022-10-22T13:00:26.648Z,98314.69
2022-10-22T13:02:32.500Z,98309.16
2022-10-22T13:04:38.784Z,98310.56
2022-10-22T13:06:50.454Z,98310.09
2022-10-22T13:09:10.943Z,98304.22
2022-10-22T13:11:15.721Z,98306.34
2022-10-22T13:13:43.554Z,98302.88
2022-10-22T13:15:48.348Z,98300.84
2022-10-22T13:17:54.018Z,98312.91
2022-10-22T13:20:05.441Z,98302.69
2022-10-22T13:22:30.825Z,98309.28
2022-10-22T13:24:39.225Z,98309.44
2022-10-22T13:26:43.971Z,98311.84
2022-10-22T13:28:54.754Z,98310.47
2022-10-22T13:31:01.505Z,98306.97
2022-10-22T13:33:08.639Z,98309.00
2022-10-22T13:35:26.568Z,98307.09
2022-10-22T13:37:38.737Z,98305.44
2022-10-22T13:39:43.620Z,98300.84
2022-10-22T13:41:50.386Z,98295.75
2022-10-22T13:43:55.878Z,98296.69
2022-10-22T13:46:02.754Z,98301.59
2022-10-22T13:48:07.945Z,98304.84
2022-10-22T13:50:17.523Z,98293.56
2022-10-22T13:52:42.184Z,98309.59
2022-10-22T13:54:47.205Z,98304.41
2022-10-22T13:56:52.894Z,98305.91
2022-10-22T13:58:57.723Z,98301.94
2022-10-22T14:01:08.749Z,98306.88
2022-10-22T14:03:14.965Z,98315.63
2022-10-22T14:05:21.124Z,98314.28
2022-10-22T14:07:25.871Z,98305.91
2022-10-22T14:09:33.176Z,98311.50
2022-10-22T14:11:37.989Z,98305.75
2022-10-22T14:13:43.074Z,98302.16
2022-10-22T14:15:50.912Z,98301.31
2022-10-22T14:17:59.397Z,98304.81
2022-10-22T14:20:04.526Z,98300.03
2022-10-22T14:22:13.090Z,98300.38
2022-10-22T14:24:17.865Z,98307.13
2022-10-22T14:26:31.425Z,98302.91
2022-10-22T14:28:41.270Z,98305.75
2022-10-22T14:30:57.215Z,98294.03
2022-10-22T14:33:02.198Z,98303.28
2022-10-22T14:35:07.360Z,98298.53
2022-10-22T14:37:23.627Z,98302.69
2022-10-22T14:39:30.277Z,98308.03
2022-10-22T14:41:37.901Z,98306.16
2022-10-22T14:43:42.593Z,98307.22
2022-10-22T14:45:47.356Z,98313.31
2022-10-22T14:47:52.468Z,98314.28
2022-10-22T14:49:56.925Z,98318.06
2022-10-22T14:52:01.773Z,98315.94
2022-10-22T14:54:06.778Z,98325.56
2022-10-22T14:56:14.849Z,98327.00
2022-10-22T14:58:22.288Z,98322.78
2022-10-22T15:00:27.055Z,98323.34
2022-10-22T15:02:31.869Z,98330.75
2022-10-22T15:04:36.713Z,98321.06
2022-10-22T15:06:41.508Z,98327.78
2022-10-22T15:08:48.136Z,98332.22
2022-10-22T15:11:01.591Z,98333.06
2022-10-22T15:13:06.418Z,98341.09
2022-10-22T15:15:14.136Z,98331.25
2022-10-22T15:17:20.226Z,98340.50
2022-10-22T15:19:25.013Z,98331.06
2022-10-22T15:21:32.534Z,98332.94
2022-10-22T15:23:39.295Z,98334.47
2022-10-22T15:25:46.475Z,98337.41
2022-10-22T15:27:52.567Z,98339.53
2022-10-22T15:30:00.786Z,98332.38
2022-10-22T15:32:10.430Z,98340.25
2022-10-22T15:34:15.680Z,98341.22
2022-10-22T15:36:20.463Z,98341.44
2022-10-22T15:40:35.103Z,98352.66
2022-10-22T15:42:40.157Z,98357.91
2022-10-22T15:44:45.117Z,98361.25
2022-10-22T15:48:58.170Z,98368.09
2022-10-22T15:51:02.942Z,98370.75
2022-10-22T15:53:08.109Z,98361.03
2022-10-22T15:57:37.738Z,98379.47
2022-10-22T15:59:42.490Z,98377.91
2022-10-22T16:01:47.933Z,98381.41
2022-10-22T16:04:00.282Z,98395.50
2022-10-22T16:06:09.237Z,98400.28
2022-10-22T16:08:14.313Z,98404.81
2022-10-22T16:10:21.790Z,98403.84
2022-10-22T16:12:26.680Z,98406.25
2022-10-22T16:14:31.608Z,98407.84
2022-10-22T16:16:39.929Z,98399.84
2022-10-22T16:18:44.644Z,98411.09
2022-10-22T16:20:49.796Z,98418.16
2022-10-22T16:22:56.878Z,98416.09
2022-10-22T16:25:01.624Z,98413.53
2022-10-22T16:27:07.034Z,98424.38
2022-10-22T16:29:12.683Z,98424.59
2022-10-22T16:31:19.741Z,98416.91
2022-10-22T16:33:24.897Z,98427.78
2022-10-22T16:35:32.879Z,98428.00
2022-10-22T16:37:39.267Z,98430.81
2022-10-22T16:39:46.882Z,98441.44
2022-10-22T16:41:51.913Z,98444.28
2022-10-22T16:44:00.421Z,98449.00
2022-10-22T16:46:05.985Z,98450.25
2022-10-22T16:48:11.797Z,98452.38
2022-10-22T16:50:16.526Z,98458.03
2022-10-22T16:52:21.297Z,98458.34
2022-10-22T16:54:26.080Z,98457.72
2022-10-22T16:56:33.756Z,98472.75
2022-10-22T16:58:38.484Z,98467.78
2022-10-22T17:00:43.309Z,98479.41
2022-10-22T17:02:48.148Z,98476.94
2022-10-22T17:04:52.949Z,98475.56
2022-10-22T17:06:57.663Z,98478.59
2022-10-22T17:09:02.468Z,98478.91
2022-10-22T17:11:11.285Z,98483.53
2022-10-22T17:13:18.747Z,98475.91
2022-10-22T17:15:23.479Z,98480.53
2022-10-22T17:17:30.686Z,98479.22
2022-10-22T17:19:38.821Z,98482.25
2022-10-22T17:21:43.657Z,98486.13
2022-10-22T17:23:49.046Z,98486.59
2022-10-22T17:26:01.234Z,98484.25
2022-10-22T17:28:06.050Z,98482.97
2022-10-22T17:30:19.208Z,98492.16
2022-10-22T17:32:26.691Z,98491.72
2022-10-22T17:34:33.301Z,98504.41
2022-10-22T17:36:38.787Z,98506.34
2022-10-22T17:38:45.458Z,98512.81
2022-10-22T17:40:50.226Z,98521.00
2022-10-22T17:42:55.122Z,98518.56
2022-10-22T17:45:00.341Z,98519.66
2022-10-22T17:47:07.465Z,98516.69
2022-10-22T17:49:18.895Z,98520.34
2022-10-22T17:51:24.928Z,98517.03
2022-10-22T17:53:30.856Z,98523.41
2022-10-22T17:55:36.337Z,98518.53
2022-10-22T17:57:41.486Z,98525.81
2022-10-22T17:59:45.962Z,98527.97
2022-10-22T18:01:50.757Z,98527.31
2022-10-22T18:04:02.210Z,98528.34
2022-10-22T18:06:11.075Z,98537.44
2022-10-22T18:08:15.869Z,98541.22
2022-10-22T18:10:20.579Z,98534.38
2022-10-22T18:12:26.868Z,98536.34
2022-10-22T18:14:31.575Z,98540.91
2022-10-22T18:16:36.562Z,98548.09
2022-10-22T18:18:41.374Z,98543.03
2022-10-22T18:20:51.453Z,98553.69
2022-10-22T18:22:57.097Z,98550.50
2022-10-22T18:25:01.803Z,98549.75
2022-10-22T18:27:06.734Z,98555.91
2022-10-22T18:29:12.625Z,98553.41
2022-10-22T18:31:21.520Z,98560.25
2022-10-22T18:33:26.720Z,98556.84
2022-10-22T18:35:34.276Z,98559.66
2022-10-22T18:37:42.476Z,98558.03
2022-10-22T18:39:47.544Z,98556.53
2022-10-22T18:41:52.266Z,98556.59
2022-10-22T18:43:58.993Z,98559.41
2022-10-22T18:46:04.347Z,98559.59
2022-10-22T18:48:08.815Z,98561.59
2022-10-22T18:50:13.560Z,98560.88
2022-10-22T18:52:18.322Z,98566.19
2022-10-22T18:54:28.336Z,98567.97
2022-10-22T18:56:33.126Z,98569.75
2022-10-22T18:58:40.681Z,98562.72
2022-10-22T19:00:45.500Z,98558.50
2022-10-22T19:02:50.265Z,98561.13
2022-10-22T19:04:55.020Z,98556.63
2022-10-22T19:07:00.039Z,98561.03
2022-10-22T19:09:04.870Z,98564.69
2022-10-22T19:11:16.319Z,98568.13
2022-10-22T19:13:23.456Z,98571.78
2022-10-22T19:15:30.298Z,98569.22
2022-10-22T19:17:35.077Z,98569.38
2022-10-22T19:19:39.851Z,98571.34
2022-10-22T19:21:44.560Z,98567.22
2022-10-22T19:23:49.603Z,98568.13
2022-10-22T19:26:02.959Z,98572.69
2022-10-22T19:28:10.385Z,98566.78
2022-10-22T19:30:16.219Z,98563.38
2022-10-22T19:32:21.526Z,98572.25
2022-10-22T19:34:26.424Z,98574.81
2022-10-22T19:36:32.816Z,98573.13
2022-10-22T19:38:38.124Z,98566.19
2022-10-22T19:40:43.769Z,98560.09
2022-10-22T19:42:51.327Z,98564.56
2022-10-22T19:44:58.714Z,98565.50
2022-10-22T19:47:03.458Z,98564.00
2022-10-22T19:49:08.719Z,98560.50
2022-10-22T19:51:17.233Z,98570.41
2022-10-22T19:53:21.981Z,98566.16
2022-10-22T19:55:29.344Z,98572.25
2022-10-22T19:57:34.114Z,98567.00
2022-10-22T19:59:38.918Z,98567.94
2022-10-22T20:01:46.585Z,98568.97
2022-10-22T20:03:51.655Z,98569.03
2022-10-22T20:05:56.218Z,98570.28
2022-10-22T20:08:00.975Z,98575.53
2022-10-22T20:10:06.087Z,98573.78
2022-10-22T20:12:10.908Z,98574.69
2022-10-22T20:14:16.554Z,98575.53
2022-10-22T20:16:23.641Z,98578.16
2022-10-22T20:18:32.724Z,98581.66
2022-10-22T20:20:40.067Z,98583.53
2022-10-22T20:22:44.906Z,98581.06
2022-10-22T20:24:49.730Z,98579.53
2022-10-22T20:26:54.482Z,98579.63
2022-10-22T20:28:59.900Z,98577.91
2022-10-22T20:31:04.652Z,98589.31
2022-10-22T20:33:09.448Z,98584.91
2022-10-22T20:35:17.986Z,98587.53
2022-10-22T20:37:22.702Z,98584.06
2022-10-22T20:39:27.627Z,98588.63
2022-10-22T20:41:34.037Z,98586.34
2022-10-22T20:43:38.835Z,98596.81
2022-10-22T20:45:43.648Z,98593.31
2022-10-22T20:47:51.557Z,98599.59
2022-10-22T20:50:03.033Z,98598.72
2022-10-22T20:52:10.951Z,98597.88
2022-10-22T20:54:19.001Z,98593.47
2022-10-22T20:56:26.771Z,98596.09
2022-10-22T20:58:32.136Z,98602.28
2022-10-22T21:00:39.383Z,98597.25
2022-10-22T21:02:44.162Z,98599.97
2022-10-22T21:04:49.011Z,98604.69
2022-10-22T21:06:53.704Z,98602.22
2022-10-22T21:09:01.104Z,98602.97
2022-10-22T21:11:05.972Z,98609.31
2022-10-22T21:13:10.821Z,98597.16
2022-10-22T21:15:15.622Z,98604.13
2022-10-22T21:17:20.396Z,98608.53
2022-10-22T21:19:26.112Z,98606.00
2022-10-22T21:21:31.101Z,98602.50
2022-10-22T21:23:36.367Z,98599.00
2022-10-22T21:25:44.005Z,98604.38
2022-10-22T21:27:48.799Z,98608.00
2022-10-22T21:29:53.619Z,98607.16
2022-10-22T21:31:58.339Z,98611.53
2022-10-22T21:34:03.145Z,98609.69
2022-10-22T21:36:09.645Z,98606.31
2022-10-22T21:38:14.434Z,98611.69
2022-10-22T21:40:19.198Z,98610.94
2022-10-22T21:42:26.675Z,98606.75
2022-10-22T21:44:31.592Z,98600.59
2022-10-22T21:46:37.578Z,98604.06
2022-10-22T21:48:42.490Z,98605.75
2022-10-22T21:50:47.553Z,98603.22
2022-10-22T21:52:52.180Z,98603.44
2022-10-22T21:54:57.005Z,98598.22
2022-10-22T21:57:01.732Z,98604.28
2022-10-22T21:59:10.081Z,98610.50
2022-10-22T22:01:15.879Z,98608.00
2022-10-22T22:03:20.666Z,98597.59
2022-10-22T22:05:27.450Z,98603.75
2022-10-22T22:07:32.247Z,98607.44
2022-10-22T22:09:37.012Z,98606.53
2022-10-22T22:11:41.763Z,98601.22
2022-10-22T22:13:47.292Z,98607.31
2022-10-22T22:15:55.141Z,98595.06
2022-10-22T22:17:59.924Z,98599.28
2022-10-22T22:20:05.956Z,98605.44
2022-10-22T22:22:10.825Z,98605.53
2022-10-22T22:24:16.089Z,98604.75
2022-10-22T22:26:29.610Z,98598.66
2022-10-22T22:28:35.958Z,98590.19
2022-10-22T22:30:40.695Z,98593.59
2022-10-22T22:32:48.062Z,98594.53
2022-10-22T22:34:52.821Z,98586.75
2022-10-22T22:36:57.535Z,98587.66
2022-10-22T22:39:02.298Z,98587.97
2022-10-22T22:41:07.631Z,98596.88
2022-10-22T22:43:13.898Z,98593.28
2022-10-22T22:45:18.874Z,98592.50
2022-10-22T22:47:23.637Z,98593.34
2022-10-22T22:49:30.953Z,98585.56
2022-10-22T22:51:36.833Z,98589.13
2022-10-22T22:53:41.531Z,98577.03
2022-10-22T22:55:46.401Z,98580.50
2022-10-22T22:57:51.212Z,98570.25
2022-10-22T22:59:55.964Z,98571.13
2022-10-22T23:02:01.256Z,98564.94
2022-10-22T23:04:07.034Z,98565.09
2022-10-22T23:06:14.968Z,98564.63
2022-10-22T23:08:19.716Z,98563.63
2022-10-22T23:10:24.552Z,98558.47
2022-10-22T23:12:29.522Z,98548.16
2022-10-22T23:14:34.263Z,98550.78
2022-10-22T23:16:44.307Z,98553.38
2022-10-22T23:18:50.270Z,98555.16
2022-10-22T23:20:55.218Z,98553.47
2022-10-22T23:23:06.107Z,98553.47
2022-10-22T23:25:12.176Z,98540.41
2022-10-22T23:27:16.884Z,98552.63
2022-10-22T23:29:24.716Z,98553.63
2022-10-22T23:31:29.626Z,98553.53
2022-10-22T23:33:34.331Z,98550.06
2022-10-22T23:35:42.219Z,98556.16
2022-10-22T23:37:47.010Z,98561.47
2022-10-22T23:39:54.278Z,98559.22
2022-10-22T23:41:59.705Z,98569.16
2022-10-22T23:44:04.820Z,98565.69
2022-10-22T23:46:10.147Z,98567.66
2022-10-22T23:48:15.005Z,98578.06
2022-10-22T23:50:19.760Z,98578.06
2022-10-22T23:52:24.529Z,98580.69
2022-10-22T23:54:29.387Z,98586.75
2022-10-22T23:56:37.570Z,98586.75
2022-10-22T23:58:42.873Z,98582.50
